Swedesboro, New Jersey
Current Conditions -  °F | °C
As of 10:54 AM on Sunday 23 Nov 2014 (Local Time) from KPHL Reporting Station
Broken Clouds Broken Clouds  
Wind Chill: 10°   Ceiling: 25000
Heat Index: 10°   Visibility: 10mi
Dew Point: -4°   Wind: 10mph
Humidity: 36%   Direction: 250°WSW
Pressure: 30.21"   Gusts: NA
Location:  39.75°N, 75.31°W
Report Text: KPHL 231554Z 25009KT 10SM FEW090 FEW160 BKN250 10/M04 A3021 RMK AO2 SLP228 T01001044 $
Loading
Personal Weather Stations






























Interactive Weather Map New forecast layout! Learn more

10-Day Weather Forecast

Advertisements
Track Severe Weather on mobile